Time;durP1;ratioP1;P1;durP2;ratioP2;P2;SDS_P1;SDS_P2;PMS_P1;PMS_P2;Temp;Humidity;BMP_temperature;BMP_pressure;BME280_temperature;BME280_humidity;BME280_pressure;Samples;Min_cycle;Max_cycle;Signal;HPM_P1;HPM_P2
2021/11/10 00:02:21;;;;;;;35.90;11.10;;;;;;;9.54;95.98;102606.31;4976073;28;20030;-67
2021/11/10 00:04:46;;;;;;;35.30;11.32;;;;;;;9.52;95.46;102603.66;4974080;28;20571;-66
2021/11/10 00:07:12;;;;;;;37.10;11.82;;;;;;;9.48;95.51;102604.59;4973661;28;20047;-67
2021/11/10 00:09:37;;;;;;;41.67;10.85;;;;;;;9.51;94.17;102606.31;4976003;28;20022;-67
2021/11/10 00:12:03;;;;;;;32.72;10.10;;;;;;;9.54;93.68;102608.94;4975887;28;20361;-67
2021/11/10 00:14:28;;;;;;;34.55;10.35;;;;;;;9.54;93.59;102605.41;4974228;28;20058;-67
2021/11/10 00:16:55;;;;;;;35.17;10.40;;;;;;;9.57;92.52;102614.19;4974993;28;20454;-68
2021/11/10 00:19:21;;;;;;;30.90;9.80;;;;;;;9.57;91.90;102600.97;4974568;28;20391;-67
2021/11/10 00:21:47;;;;;;;26.88;9.18;;;;;;;9.56;91.67;102606.28;4975113;28;20043;-66
2021/11/10 00:24:12;;;;;;;31.05;9.40;;;;;;;9.58;91.54;102594.78;4974913;28;20093;-68
2021/11/10 00:26:38;;;;;;;31.50;9.63;;;;;;;9.61;90.79;102594.75;4974312;28;20038;-66
2021/11/10 00:29:03;;;;;;;30.08;9.30;;;;;;;9.59;90.90;102588.63;4973910;28;20479;-65
2021/11/10 00:31:29;;;;;;;28.50;10.40;;;;;;;9.58;91.18;102583.31;4975268;28;20041;-67
2021/11/10 00:33:54;;;;;;;31.42;11.13;;;;;;;9.59;90.91;102582.44;4975615;28;20031;-67
2021/11/10 00:36:20;;;;;;;29.15;10.93;;;;;;;9.57;91.39;102579.81;4973681;28;20037;-66
2021/11/10 00:38:45;;;;;;;24.40;10.73;;;;;;;9.58;90.86;102586.84;4973180;28;20046;-67
2021/11/10 00:41:11;;;;;;;25.83;10.25;;;;;;;9.56;90.98;102570.13;4972749;28;20082;-67
2021/11/10 00:43:37;;;;;;;28.48;10.25;;;;;;;9.57;91.20;102577.16;4975217;28;20062;-67
2021/11/10 00:46:02;;;;;;;26.25;10.00;;;;;;;9.55;91.55;102573.66;4973576;28;20118;-67
2021/11/10 00:48:28;;;;;;;27.67;9.38;;;;;;;9.51;91.81;102574.59;4975277;28;20085;-70
2021/11/10 00:50:54;;;;;;;25.13;9.20;;;;;;;9.50;92.04;102575.47;4973403;28;20035;-69
2021/11/10 00:53:19;;;;;;;25.77;10.30;;;;;;;9.49;91.55;102571.97;4974049;28;20386;-67
2021/11/10 00:55:44;;;;;;;33.00;10.38;;;;;;;9.51;91.75;102569.31;4975106;28;20038;-67
2021/11/10 00:58:11;;;;;;;26.17;9.73;;;;;;;9.53;92.23;102567.53;4973305;28;20031;-67
2021/11/10 01:00:37;;;;;;;35.78;11.55;;;;;;;9.51;92.46;102569.31;4973058;28;20033;-67
2021/11/10 01:03:03;;;;;;;27.67;10.15;;;;;;;9.49;92.82;102560.53;4974962;28;20067;-67
2021/11/10 01:05:29;;;;;;;25.05;9.80;;;;;;;9.52;92.91;102563.97;4974848;28;20026;-66
2021/11/10 01:07:55;;;;;;;27.60;10.60;;;;;;;9.53;92.84;102556.94;4972593;28;20105;-66
2021/11/10 01:10:21;;;;;;;32.75;9.73;;;;;;;9.55;92.93;102556.91;4973347;28;20033;-67
2021/11/10 01:12:47;;;;;;;25.63;9.80;;;;;;;9.60;93.20;102547.16;4974703;28;20022;-67
2021/11/10 01:15:12;;;;;;;32.22;11.07;;;;;;;9.62;93.50;102545.38;4974235;28;20038;-66
2021/11/10 01:17:38;;;;;;;34.15;11.15;;;;;;;9.61;93.52;102546.25;4974017;28;20030;-67
2021/11/10 01:20:06;;;;;;;27.63;10.70;;;;;;;9.61;93.77;102548.91;4955510;29;20086;-66
2021/11/10 01:22:32;;;;;;;28.20;10.77;;;;;;;9.62;93.88;102546.25;4956077;28;20062;-66
2021/11/10 01:24:57;;;;;;;30.40;10.80;;;;;;;9.62;94.14;102540.94;4954845;29;20071;-66
2021/11/10 01:27:22;;;;;;;33.28;11.00;;;;;;;9.64;94.07;102535.63;4956713;28;20027;-66
2021/11/10 01:29:48;;;;;;;35.28;12.20;;;;;;;9.62;94.08;102527.72;4961715;28;20070;-67
2021/11/10 01:32:14;;;;;;;38.78;11.27;;;;;;;9.62;94.09;102527.72;4956026;28;20031;-67
2021/11/10 01:34:39;;;;;;;31.08;10.55;;;;;;;9.58;94.31;102525.13;4955042;29;20035;-66
2021/11/10 01:37:05;;;;;;;35.83;11.10;;;;;;;9.57;93.65;102518.97;4955039;29;20440;-66
2021/11/10 01:39:31;;;;;;;35.95;11.45;;;;;;;9.60;93.39;102513.63;4955517;28;20035;-66
2021/11/10 01:42:02;;;;;;;32.00;10.73;;;;;;;9.62;92.90;102503.91;4954837;29;20035;-67
2021/11/10 01:44:29;;;;;;;38.33;11.18;;;;;;;9.61;92.50;102507.44;4956080;28;20392;-67
2021/11/10 01:46:57;;;;;;;41.42;13.35;;;;;;;9.62;92.36;102508.34;4955009;29;20049;-67
2021/11/10 01:49:23;;;;;;;32.88;11.65;;;;;;;9.59;92.27;102496.03;4954777;28;20110;-70
2021/11/10 01:51:53;;;;;;;36.72;11.25;;;;;;;9.56;92.36;102490.78;4956782;28;20113;-66
2021/11/10 01:54:22;;;;;;;42.35;12.55;;;;;;;9.57;91.91;102478.44;4971239;28;20081;-66
2021/11/10 01:56:49;;;;;;;36.72;12.90;;;;;;;9.52;91.44;102470.56;4973988;28;20476;-66
2021/11/10 01:59:39;;;;;;;37.35;12.80;;;;;;;9.50;91.77;102478.53;4973927;28;20026;-68
2021/11/10 02:02:08;;;;;;;39.35;13.38;;;;;;;9.46;91.47;102474.19;4959325;28;20031;-67
2021/11/10 02:04:35;;;;;;;32.35;11.52;;;;;;;9.48;91.86;102475.00;4959720;28;20027;-67
2021/11/10 02:07:02;;;;;;;41.08;11.18;;;;;;;9.48;91.72;102476.81;4973575;28;20030;-66
2021/11/10 02:09:28;;;;;;;35.90;11.35;;;;;;;9.49;92.18;102478.56;4973509;28;20035;-67
2021/11/10 02:11:55;;;;;;;28.58;11.18;;;;;;;9.51;92.10;102466.16;4972387;28;20030;-67
2021/11/10 02:14:25;;;;;;;35.47;11.88;;;;;;;9.47;91.71;102460.03;4972356;28;20058;-66
2021/11/10 02:16:51;;;;;;;36.90;11.77;;;;;;;9.52;91.76;102467.91;4970178;28;20368;-69
2021/11/10 02:19:18;;;;;;;34.03;11.50;;;;;;;9.51;91.54;102466.16;4973577;28;20077;-67
2021/11/10 02:21:48;;;;;;;36.70;11.50;;;;;;;9.51;91.64;102467.06;4971393;28;20073;-66
2021/11/10 02:24:15;;;;;;;37.30;11.20;;;;;;;9.52;91.28;102465.28;4955587;28;20110;-67
2021/11/10 02:26:44;;;;;;;31.65;11.18;;;;;;;9.46;91.57;102465.34;4954210;29;20531;-67
2021/11/10 02:29:11;;;;;;;36.25;11.50;;;;;;;9.45;91.87;102466.25;4954458;29;20118;-67
2021/11/10 02:31:37;;;;;;;38.38;12.35;;;;;;;9.44;91.74;102481.25;4954708;29;20367;-67
2021/11/10 02:34:03;;;;;;;34.35;11.85;;;;;;;9.41;91.76;102478.66;4969482;28;20027;-67
2021/11/10 02:36:31;;;;;;;33.45;11.02;;;;;;;9.38;91.67;102491.03;4954146;29;20427;-67
2021/11/10 02:39:00;;;;;;;35.97;12.38;;;;;;;9.39;91.54;102484.88;4954326;29;20032;-67
2021/11/10 02:41:27;;;;;;;41.47;12.32;;;;;;;9.41;91.40;102486.59;4954106;29;20063;-68
2021/11/10 02:43:53;;;;;;;31.98;10.70;;;;;;;9.43;91.68;102473.34;4955162;28;20423;-67
2021/11/10 02:46:18;;;;;;;31.77;11.07;;;;;;;9.41;91.71;102475.13;4955303;28;20167;-67
2021/11/10 02:48:43;;;;;;;44.17;14.38;;;;;;;9.40;91.25;102461.03;4954188;29;20436;-66
2021/11/10 02:51:09;;;;;;;34.22;13.10;;;;;;;9.42;91.02;102455.72;4954102;29;20567;-73
2021/11/10 02:53:34;;;;;;;40.72;13.48;;;;;;;9.41;90.94;102452.22;4955272;28;20089;-66
2021/11/10 02:55:59;;;;;;;44.22;13.80;;;;;;;9.40;90.14;102458.41;4954903;28;20468;-67
2021/11/10 02:58:31;;;;;;;44.80;14.52;;;;;;;9.43;90.23;102449.53;4953959;28;20102;-66
2021/11/10 03:00:56;;;;;;;41.30;14.20;;;;;;;9.44;89.86;102457.44;4954102;29;20053;-67
2021/11/10 03:03:21;;;;;;;45.45;15.20;;;;;;;9.43;90.02;102466.28;4954230;29;20752;-67
2021/11/10 03:05:49;;;;;;;46.63;15.98;;;;;;;9.42;90.02;102458.38;4954769;28;20546;-69
2021/11/10 03:08:19;;;;;;;45.28;15.55;;;;;;;9.39;89.88;102459.28;4972344;28;20043;-67
2021/11/10 03:10:45;;;;;;;48.38;14.68;;;;;;;9.38;90.51;102462.81;4973320;28;20054;-67
2021/11/10 03:13:11;;;;;;;37.17;13.50;;;;;;;9.37;90.73;102465.50;4973340;28;20509;-67
2021/11/10 03:15:38;;;;;;;45.25;14.90;;;;;;;9.37;90.65;102463.72;4973497;28;20027;-66
2021/11/10 03:18:04;;;;;;;40.78;14.23;;;;;;;9.35;90.48;102469.03;4975319;28;20034;-68
2021/11/10 03:20:29;;;;;;;41.38;13.35;;;;;;;9.35;91.25;102460.22;4976698;28;20043;-67
2021/11/10 03:22:55;;;;;;;39.40;13.98;;;;;;;9.34;90.75;102456.69;4976745;28;20053;-66
2021/11/10 03:25:20;;;;;;;37.10;12.68;;;;;;;9.34;90.73;102455.84;4976347;28;20102;-67
2021/11/10 03:27:45;;;;;;;37.95;12.55;;;;;;;9.31;91.07;102459.38;4973355;28;20035;-67
2021/11/10 03:30:11;;;;;;;33.03;11.93;;;;;;;9.35;91.02;102457.59;4976481;28;20550;-67
2021/11/10 03:32:36;;;;;;;40.13;13.10;;;;;;;9.35;90.79;102457.59;4976664;28;20034;-67
2021/11/10 03:35:02;;;;;;;38.33;11.75;;;;;;;9.36;90.42;102454.06;4976326;28;20023;-67
2021/11/10 03:37:27;;;;;;;39.25;11.93;;;;;;;9.35;90.25;102461.09;4974827;28;20523;-71
2021/11/10 03:39:52;;;;;;;35.63;11.40;;;;;;;9.34;90.51;102464.63;4973023;28;20121;-66
2021/11/10 03:42:18;;;;;;;31.75;11.20;;;;;;;9.34;90.19;102467.28;4976074;28;20027;-68
2021/11/10 03:44:43;;;;;;;37.28;11.40;;;;;;;9.33;90.22;102462.91;4976270;28;20022;-67
2021/11/10 03:47:09;;;;;;;30.35;10.48;;;;;;;9.33;90.38;102476.13;4975056;28;20110;-67
2021/11/10 03:49:34;;;;;;;29.80;10.60;;;;;;;9.34;90.58;102469.06;4974114;28;20583;-66
2021/11/10 03:51:59;;;;;;;37.75;11.07;;;;;;;9.32;91.14;102474.38;4976073;28;20045;-67
2021/11/10 03:54:25;;;;;;;37.90;11.10;;;;;;;9.30;90.58;102472.63;4976331;28;20070;-71
2021/11/10 03:56:50;;;;;;;31.85;10.70;;;;;;;9.31;90.72;102472.63;4976038;28;20018;-66
2021/11/10 03:59:15;;;;;;;32.28;10.55;;;;;;;9.31;90.32;102464.69;4972729;28;20126;-66
2021/11/10 04:01:41;;;;;;;37.08;10.85;;;;;;;9.31;90.56;102459.38;4976150;28;20055;-67
2021/11/10 04:04:07;;;;;;;32.70;10.55;;;;;;;9.33;90.86;102465.53;4976159;28;20062;-67
2021/11/10 04:06:33;;;;;;;29.13;10.07;;;;;;;9.36;90.21;102459.34;4975792;28;20027;-67
2021/11/10 04:08:58;;;;;;;31.60;10.13;;;;;;;9.36;89.88;102467.28;4974094;28;20046;-66
2021/11/10 04:11:24;;;;;;;26.67;9.65;;;;;;;9.35;89.67;102476.97;4974289;28;20105;-66
2021/11/10 04:13:51;;;;;;;28.13;10.05;;;;;;;9.31;90.51;102477.00;4975560;28;20518;-67
2021/11/10 04:16:20;;;;;;;30.73;9.65;;;;;;;9.29;90.14;102474.38;4975877;28;20114;-68
2021/11/10 04:18:48;;;;;;;29.80;10.35;;;;;;;9.27;90.86;102475.31;4975145;28;20525;-67
2021/11/10 04:21:14;;;;;;;29.27;9.88;;;;;;;9.26;90.60;102474.44;4972953;28;20471;-69
2021/11/10 04:23:39;;;;;;;31.90;9.77;;;;;;;9.25;90.63;102471.81;4975750;28;20022;-67
2021/11/10 04:26:05;;;;;;;31.13;9.63;;;;;;;9.26;90.85;102485.00;4975117;28;20031;-71
2021/11/10 04:28:31;;;;;;;30.92;9.90;;;;;;;9.27;90.98;102483.22;4974768;28;20073;-66
2021/11/10 04:30:56;;;;;;;24.33;9.57;;;;;;;9.27;90.72;102485.88;4972921;28;20086;-66
2021/11/10 04:33:22;;;;;;;30.25;9.40;;;;;;;9.28;90.93;102482.34;4974749;28;20027;-66
2021/11/10 04:35:48;;;;;;;30.20;8.98;;;;;;;9.26;91.01;102474.44;4975432;28;20034;-66
2021/11/10 04:38:14;;;;;;;26.70;9.02;;;;;;;9.25;91.08;102479.75;4975173;28;20027;-67
2021/11/10 04:40:40;;;;;;;26.63;9.60;;;;;;;9.23;91.18;102478.88;4973643;28;20046;-67
2021/11/10 04:43:05;;;;;;;24.50;8.32;;;;;;;9.24;91.03;102476.22;4973678;28;20034;-67
2021/11/10 04:45:33;;;;;;;29.40;9.48;;;;;;;9.24;91.33;102483.28;4963412;28;20035;-67
2021/11/10 04:47:59;;;;;;;28.42;9.75;;;;;;;9.22;91.51;102478.03;4955903;29;20089;-69
2021/11/10 04:50:25;;;;;;;21.10;8.93;;;;;;;9.21;91.45;102473.63;4955775;29;20106;-67
2021/11/10 04:52:50;;;;;;;25.40;8.73;;;;;;;9.20;91.53;102478.94;4957610;28;20043;-67
2021/11/10 04:55:16;;;;;;;25.98;8.60;;;;;;;9.22;91.00;102488.59;4955651;29;20073;-66
2021/11/10 04:57:42;;;;;;;22.83;7.93;;;;;;;9.22;91.57;102485.97;4955364;29;20114;-68
2021/11/10 05:00:09;;;;;;;28.60;9.27;;;;;;;9.24;90.67;102489.44;4955590;29;20027;-68
2021/11/10 05:02:35;;;;;;;23.88;9.27;;;;;;;9.21;90.58;102492.13;4956593;28;20023;-68
2021/11/10 05:05:01;;;;;;;22.05;8.25;;;;;;;9.18;89.78;102486.88;4956459;28;20046;-67
2021/11/10 05:07:26;;;;;;;27.85;8.80;;;;;;;9.14;90.20;102487.81;4955127;29;20261;-67
2021/11/10 05:09:54;;;;;;;23.40;8.38;;;;;;;9.11;89.77;102478.16;4955349;29;20066;-67
2021/11/10 05:12:20;;;;;;;21.50;8.27;;;;;;;9.05;90.56;102472.06;4956167;28;20098;-68
2021/11/10 05:14:46;;;;;;;21.52;8.50;;;;;;;9.03;90.85;102480.03;4956133;28;20024;-67
2021/11/10 05:17:12;;;;;;;23.00;8.77;;;;;;;9.06;91.09;102490.53;4955238;29;20039;-67
2021/11/10 05:19:38;;;;;;;23.90;10.00;;;;;;;9.06;91.16;102487.91;4955401;29;20057;-66
2021/11/10 05:22:04;;;;;;;24.40;9.35;;;;;;;9.10;90.77;102480.81;4955115;29;20075;-67
2021/11/10 05:24:29;;;;;;;23.20;9.20;;;;;;;9.08;90.84;102478.19;4957202;28;20386;-66
2021/11/10 05:26:55;;;;;;;22.02;7.93;;;;;;;9.12;90.83;102489.63;4954937;29;20042;-68
2021/11/10 05:29:21;;;;;;;23.15;9.15;;;;;;;9.14;90.91;102475.47;4954962;29;20035;-67
2021/11/10 05:31:46;;;;;;;22.55;7.68;;;;;;;9.11;90.99;102474.63;4955109;29;20023;-67
2021/11/10 05:34:11;;;;;;;25.35;9.93;;;;;;;9.09;91.34;102484.34;4956028;28;20032;-66
2021/11/10 05:36:37;;;;;;;22.70;7.85;;;;;;;9.08;91.20;102475.56;4956331;28;20035;-67
2021/11/10 05:39:03;;;;;;;24.35;8.18;;;;;;;9.08;91.38;102474.66;4954507;28;20110;-67
2021/11/10 05:41:28;;;;;;;23.38;8.02;;;;;;;9.07;91.57;102481.72;4954761;29;20031;-67
2021/11/10 05:43:54;;;;;;;24.40;8.23;;;;;;;9.10;91.75;102484.31;4954726;29;20027;-67
2021/11/10 05:46:19;;;;;;;29.15;9.57;;;;;;;9.08;91.70;102486.13;4956712;28;20499;-67
2021/11/10 05:48:44;;;;;;;19.60;7.68;;;;;;;9.11;91.67;102479.94;4954942;29;20027;-66
2021/11/10 05:51:10;;;;;;;19.10;7.53;;;;;;;9.12;91.03;102486.97;4954756;29;20081;-67
2021/11/10 05:53:38;;;;;;;21.55;7.60;;;;;;;9.11;91.54;102483.44;4954544;29;20031;-68
2021/11/10 05:56:04;;;;;;;23.83;8.35;;;;;;;9.10;91.76;102491.38;4965026;28;20030;-65
2021/11/10 05:58:32;;;;;;;20.10;8.07;;;;;;;9.11;91.47;102491.34;4973219;28;20057;-71
2021/11/10 06:00:58;;;;;;;24.60;8.20;;;;;;;9.10;91.85;102488.75;4973370;28;20495;-66
2021/11/10 06:03:23;;;;;;;13.32;6.95;;;;;;;9.11;91.09;102477.28;4973730;28;20026;-67
2021/11/10 06:05:53;;;;;;;21.02;8.10;;;;;;;9.12;91.34;102484.31;4972255;28;20356;-67
2021/11/10 06:08:19;;;;;;;19.90;7.80;;;;;;;9.11;91.75;102493.13;4973453;28;20057;-66
2021/11/10 06:10:46;;;;;;;22.23;8.35;;;;;;;9.10;90.54;102494.88;4973972;28;20031;-68
2021/11/10 06:13:11;;;;;;;23.65;7.78;;;;;;;9.07;90.28;102497.59;4974086;28;20027;-66
2021/11/10 06:15:37;;;;;;;24.08;8.30;;;;;;;9.04;89.62;102502.03;4973509;28;20030;-67
2021/11/10 06:18:02;;;;;;;19.02;7.63;;;;;;;9.04;89.24;102505.56;4970264;28;20550;-66
2021/11/10 06:20:28;;;;;;;21.65;8.23;;;;;;;9.04;89.34;102497.63;4963508;28;20538;-67
2021/11/10 06:22:53;;;;;;;21.90;8.43;;;;;;;9.00;89.70;102495.91;4954113;29;20027;-66
2021/11/10 06:25:19;;;;;;;23.67;8.80;;;;;;;9.00;89.71;102498.53;4954484;29;20023;-67
2021/11/10 06:27:45;;;;;;;23.35;8.50;;;;;;;8.99;90.09;102502.06;4955535;28;20023;-67
2021/11/10 06:30:11;;;;;;;22.83;8.77;;;;;;;9.00;89.80;102511.75;4957314;28;20428;-68
2021/11/10 06:32:36;;;;;;;24.95;8.43;;;;;;;9.03;89.53;102501.16;4973373;28;20082;-73
2021/11/10 06:35:03;;;;;;;26.02;8.75;;;;;;;9.05;89.18;102512.56;4958401;28;20397;-68
2021/11/10 06:37:29;;;;;;;28.20;8.57;;;;;;;9.07;88.67;102502.00;4955725;28;20035;-72
2021/11/10 06:39:54;;;;;;;24.58;8.77;;;;;;;9.05;88.47;102498.50;4962252;28;20387;-66
2021/11/10 06:42:20;;;;;;;25.17;9.15;;;;;;;8.96;87.38;102500.34;4954090;29;20490;-69
2021/11/10 06:44:45;;;;;;;22.20;9.02;;;;;;;8.88;87.77;102506.63;4954227;29;20035;-67
2021/11/10 06:47:10;;;;;;;17.92;8.55;;;;;;;8.83;87.58;102504.00;4953929;29;20081;-67
2021/11/10 06:49:36;;;;;;;21.10;9.07;;;;;;;8.76;87.51;102504.97;4956096;28;20463;-68
2021/11/10 06:52:02;;;;;;;23.92;9.73;;;;;;;8.77;87.49;102509.34;4957590;29;20387;-68
2021/11/10 06:54:28;;;;;;;22.85;9.10;;;;;;;8.68;87.37;102510.31;4957539;29;20034;-67
2021/11/10 06:56:53;;;;;;;21.35;8.95;;;;;;;8.67;87.92;102508.56;4957552;29;20031;-68
2021/11/10 06:59:19;;;;;;;25.27;9.40;;;;;;;8.63;87.57;102514.78;4961888;28;20035;-66
2021/11/10 07:01:44;;;;;;;26.52;10.27;;;;;;;8.60;87.83;102515.69;4974460;28;20041;-67
2021/11/10 07:04:09;;;;;;;30.20;10.00;;;;;;;8.58;88.12;102521.88;4972621;28;20023;-67
2021/11/10 07:06:36;;;;;;;24.75;9.65;;;;;;;8.56;88.22;102524.53;4957388;29;20436;-66
2021/11/10 07:09:02;;;;;;;22.30;9.25;;;;;;;8.57;88.30;102518.38;4957085;29;20043;-67
2021/11/10 07:11:28;;;;;;;25.20;10.30;;;;;;;8.62;88.41;102523.59;4961309;28;20024;-67
2021/11/10 07:13:54;;;;;;;21.17;9.60;;;;;;;8.59;nan;102531.53;4968740;28;20023;-65
2021/11/10 07:16:19;;;;;;;28.92;10.38;;;;;;;8.57;88.12;102526.28;4968591;28;20031;-67
2021/11/10 07:18:44;;;;;;;30.10;10.30;;;;;;;8.59;88.14;102532.41;4970602;28;20027;-67
2021/11/10 07:21:10;;;;;;;24.80;9.68;;;;;;;8.58;88.24;102543.00;4958063;28;20038;-67
2021/11/10 07:23:35;;;;;;;26.40;10.35;;;;;;;8.59;88.67;102539.47;4957648;28;20118;-66
2021/11/10 07:26:02;;;;;;;31.92;10.55;;;;;;;8.60;88.44;102549.16;4971993;28;20103;-67
2021/11/10 07:28:27;;;;;;;28.60;10.23;;;;;;;8.60;88.27;102557.94;4976462;28;20022;-66
2021/11/10 07:30:53;;;;;;;29.65;10.15;;;;;;;8.61;88.01;102559.69;4976650;28;20133;-67
2021/11/10 07:33:18;;;;;;;25.42;10.50;;;;;;;8.59;88.24;102560.59;4967409;28;20086;-66
2021/11/10 07:35:44;;;;;;;30.33;10.52;;;;;;;8.64;88.30;102561.44;4976309;28;20031;-65
2021/11/10 07:38:09;;;;;;;29.95;10.98;;;;;;;8.67;87.71;102554.38;4976058;28;20479;-65
2021/11/10 07:40:35;;;;;;;31.73;11.27;;;;;;;8.73;87.20;102540.22;4976514;28;20037;-67
2021/11/10 07:43:01;;;;;;;24.15;9.70;;;;;;;8.77;86.58;102539.31;4974226;28;20037;-67
2021/11/10 07:45:37;;;;;;;27.48;10.18;;;;;;;8.78;86.49;102530.47;4973840;28;20030;-67
2021/11/10 07:48:09;;;;;;;28.45;10.05;;;;;;;8.79;86.16;102507.59;4976035;28;20027;-68
2021/11/10 07:50:35;;;;;;;;;;;;;;;8.83;86.02;102511.94;4976864;28;20022;-66
2021/11/10 07:53:01;;;;;;;25.83;9.68;;;;;;;8.83;85.65;102501.38;4973709;28;19937;-67
2021/11/10 07:55:28;;;;;;;26.23;10.60;;;;;;;8.82;86.02;102503.16;4974407;28;20034;-67
2021/11/10 07:57:53;;;;;;;31.85;10.18;;;;;;;8.89;85.88;102500.41;4976056;28;20110;-67
2021/11/10 08:00:21;;;;;;;21.33;9.55;;;;;;;8.92;85.71;102501.25;4976186;28;20026;-67
2021/11/10 08:02:46;;;;;;;25.05;9.32;;;;;;;8.97;85.99;102510.00;4974849;28;20023;-67
2021/11/10 08:05:14;;;;;;;30.95;11.43;;;;;;;8.99;86.18;102534.66;4975239;28;20027;-66
2021/11/10 08:07:40;;;;;;;28.83;9.88;;;;;;;8.93;86.12;102547.06;4961951;28;20122;-65
2021/11/10 08:10:07;;;;;;;28.92;10.80;;;;;;;8.92;86.73;102562.03;4957905;28;20205;-67
2021/11/10 08:12:33;;;;;;;27.40;9.25;;;;;;;8.91;86.05;102562.06;4974035;28;20022;-67
2021/11/10 08:14:59;;;;;;;26.90;9.60;;;;;;;8.85;86.70;102555.94;4975860;28;20109;-67
2021/11/10 08:17:25;;;;;;;32.90;11.25;;;;;;;8.85;87.21;102534.81;4962493;28;20113;-67
2021/11/10 08:19:51;;;;;;;28.27;10.60;;;;;;;8.88;86.89;102530.41;4956484;29;20032;-66
2021/11/10 08:22:16;;;;;;;30.20;9.63;;;;;;;8.84;86.66;102530.41;4956025;29;20074;-66
2021/11/10 08:24:42;;;;;;;25.75;10.05;;;;;;;8.92;86.18;102532.97;4973418;28;20023;-65
2021/11/10 08:27:08;;;;;;;27.38;10.15;;;;;;;8.98;86.47;102532.03;4972538;28;20085;-66
2021/11/10 08:29:33;;;;;;;30.10;10.27;;;;;;;9.02;85.85;102537.25;4968378;28;20027;-66
2021/11/10 08:31:59;;;;;;;30.13;11.15;;;;;;;9.05;86.07;102528.41;4972250;28;20396;-66
2021/11/10 08:34:24;;;;;;;21.67;9.98;;;;;;;9.11;86.50;102528.34;4955948;29;20028;-65
2021/11/10 08:36:49;;;;;;;26.65;10.88;;;;;;;9.21;86.17;102531.78;4957112;28;20037;-65
2021/11/10 08:39:15;;;;;;;29.58;11.18;;;;;;;9.32;85.28;102521.06;4956865;28;20031;-64
2021/11/10 08:41:42;;;;;;;32.35;11.15;;;;;;;9.33;85.05;102520.16;4972616;28;20038;-67
2021/11/10 08:44:07;;;;;;;25.65;9.60;;;;;;;9.33;83.20;102521.06;4974612;28;20434;-66
2021/11/10 08:46:33;;;;;;;26.80;9.90;;;;;;;9.39;83.50;102530.69;4952207;29;20043;-68
2021/11/10 08:48:58;;;;;;;23.02;9.00;;;;;;;9.42;83.16;102527.97;4956877;28;20038;-67
2021/11/10 08:51:24;;;;;;;24.42;10.15;;;;;;;9.39;83.36;102524.53;4956042;28;20034;-66
2021/11/10 08:53:50;;;;;;;25.20;10.38;;;;;;;9.34;83.35;102517.50;4967110;28;20375;-65
2021/11/10 08:56:16;;;;;;;31.13;9.82;;;;;;;9.35;82.91;102527.19;4958584;28;20027;-70
2021/11/10 08:58:41;;;;;;;27.45;9.40;;;;;;;9.39;82.49;102543.03;4959279;28;20119;-68
2021/11/10 09:01:07;;;;;;;26.42;8.98;;;;;;;9.39;82.08;102535.09;4956810;28;20395;-66
2021/11/10 09:03:32;;;;;;;23.00;8.93;;;;;;;9.44;81.27;102527.97;4963880;28;20050;-66
2021/11/10 09:05:58;;;;;;;24.45;9.73;;;;;;;9.45;80.92;102532.34;4974552;28;20054;-67
2021/11/10 09:08:29;;;;;;;31.15;11.18;;;;;;;9.51;81.32;102549.03;4974795;28;20050;-69
2021/11/10 09:10:56;;;;;;;29.58;11.13;;;;;;;9.66;80.07;102555.00;4975707;28;20030;-67
2021/11/10 09:13:21;;;;;;;28.77;10.82;;;;;;;9.63;80.31;102550.63;4971312;28;20035;-67
2021/11/10 09:15:47;;;;;;;32.47;11.57;;;;;;;9.72;78.86;102551.41;4967684;28;20467;-68
2021/11/10 09:18:12;;;;;;;28.38;10.15;;;;;;;9.71;78.94;102547.03;4968270;28;20384;-65
2021/11/10 09:20:39;;;;;;;29.33;10.32;;;;;;;9.73;78.03;102546.09;4972073;28;20363;-67
2021/11/10 09:23:07;;;;;;;26.67;10.98;;;;;;;9.68;78.53;102540.88;4965936;28;20031;-69
2021/11/10 09:25:35;;;;;;;25.05;10.70;;;;;;;9.83;77.98;102546.84;4972255;28;20058;-67
2021/11/10 09:28:02;;;;;;;26.08;10.02;;;;;;;9.84;77.74;102535.34;4974197;28;20046;-67
2021/11/10 09:30:29;;;;;;;24.52;10.25;;;;;;;9.90;77.83;102539.66;4973308;28;20031;-67
2021/11/10 09:32:55;;;;;;;28.50;10.77;;;;;;;10.00;77.50;102542.19;4973857;28;20636;-68
2021/11/10 09:35:22;;;;;;;24.40;10.32;;;;;;;10.05;76.98;102534.19;4972442;28;20043;-67
2021/11/10 09:37:49;;;;;;;31.20;11.02;;;;;;;10.05;77.55;102541.22;4956147;28;20027;-67
2021/11/10 09:40:17;;;;;;;26.83;10.85;;;;;;;10.14;77.16;102538.44;4954625;29;20039;-67
2021/11/10 09:42:43;;;;;;;27.38;9.50;;;;;;;10.20;76.98;102540.97;4954749;29;20023;-68
2021/11/10 09:45:13;;;;;;;22.33;8.88;;;;;;;10.27;77.12;102542.63;4955028;28;20033;-66
2021/11/10 09:47:39;;;;;;;21.88;8.48;;;;;;;10.33;74.22;102552.25;4955577;28;20054;-67
2021/11/10 09:50:06;;;;;;;23.10;9.30;;;;;;;10.33;74.95;102541.66;4954688;29;20416;-67
2021/11/10 09:52:31;;;;;;;23.38;9.52;;;;;;;10.35;74.66;102550.47;4954529;29;20027;-67
2021/11/10 09:54:57;;;;;;;21.98;8.77;;;;;;;10.43;74.44;102539.78;4954282;29;20023;-67
2021/11/10 09:57:24;;;;;;;24.67;8.40;;;;;;;10.53;73.89;102544.00;4956620;28;20027;-67
2021/11/10 09:59:50;;;;;;;42.03;20.75;;;;;;;10.77;74.12;102539.19;4954402;29;20086;-58
2021/11/10 10:02:15;;;;;;;20.85;9.52;;;;;;;11.28;71.66;102536.41;4954321;29;20031;-67
2021/11/10 10:04:42;;;;;;;21.35;7.88;;;;;;;11.79;69.35;102534.44;4954219;29;20031;-67
2021/11/10 10:07:10;;;;;;;19.67;8.68;;;;;;;12.21;68.18;102533.50;4955178;28;20031;-67
2021/11/10 10:09:36;;;;;;;19.95;8.27;;;;;;;12.82;65.91;102528.38;4954934;28;20054;-69
2021/11/10 10:12:02;;;;;;;20.50;8.20;;;;;;;13.21;63.92;102535.28;4954368;29;20027;-67
2021/11/10 10:14:27;;;;;;;17.27;7.57;;;;;;;14.02;62.79;102537.28;4954476;29;20114;-68
2021/11/10 10:16:52;;;;;;;19.67;8.02;;;;;;;14.67;59.21;102528.97;4954067;29;20032;-69
2021/11/10 10:19:18;;;;;;;19.13;8.15;;;;;;;14.61;58.44;102537.16;4956320;28;20038;-67
2021/11/10 10:21:44;;;;;;;21.75;8.52;;;;;;;14.51;58.45;102536.59;4954188;29;20383;-68
2021/11/10 10:24:14;;;;;;;22.13;9.32;;;;;;;14.36;58.67;102538.84;4954191;28;20476;-67
2021/11/10 10:26:40;;;;;;;19.88;8.82;;;;;;;14.05;59.66;102549.63;4957238;29;20027;-66
2021/11/10 10:29:09;;;;;;;22.13;8.48;;;;;;;13.75;60.83;102547.88;4960251;28;20037;-66
2021/11/10 10:31:37;;;;;;;18.60;8.75;;;;;;;13.41;62.33;102551.59;4958232;29;20033;-66
2021/11/10 10:34:10;;;;;;;22.08;8.82;;;;;;;13.03;63.42;102549.97;4957892;29;20110;-66
2021/11/10 10:36:38;;;;;;;20.60;8.73;;;;;;;12.83;63.80;102546.06;4957751;29;20487;-66
2021/11/10 10:39:10;;;;;;;19.05;8.40;;;;;;;12.53;64.59;102548.66;4959270;28;20054;-67
2021/11/10 10:41:37;;;;;;;;;;;;;;;12.25;65.30;102548.44;4958982;28;20027;-66
2021/11/10 10:44:04;;;;;;;21.75;8.68;;;;;;;12.19;66.26;102548.63;4957965;29;20366;-66
2021/11/10 10:46:34;;;;;;;31.13;10.70;;;;;;;12.01;66.72;102550.78;4957787;29;20035;-66
2021/11/10 10:49:43;;;;;;;22.75;9.65;;;;;;;11.82;68.20;102557.41;4957520;29;20034;-66
2021/11/10 10:52:13;;;;;;;22.00;8.63;;;;;;;11.82;68.75;102554.75;4958415;28;20035;-66
2021/11/10 10:54:40;;;;;;;21.13;8.98;;;;;;;11.84;68.47;102555.56;4957478;29;20464;-66
2021/11/10 10:57:07;;;;;;;25.25;9.13;;;;;;;11.86;68.87;102545.81;4957967;29;20053;-66
2021/11/10 10:59:33;;;;;;;20.00;9.00;;;;;;;11.94;68.67;102543.84;4957827;29;20030;-65
2021/11/10 11:02:03;;;;;;;22.13;9.02;;;;;;;12.05;68.30;102530.34;4959383;28;20035;-66
2021/11/10 11:04:32;;;;;;;29.37;10.63;;;;;;;12.04;68.91;102534.78;4957496;29;20027;-66
2021/11/10 11:07:04;;;;;;;56.92;16.67;;;;;;;12.08;69.21;102532.91;4957218;29;20058;-67
2021/11/10 11:09:39;;;;;;;21.40;8.82;;;;;;;12.17;68.05;102532.69;4957062;29;20051;-67
2021/11/10 11:12:23;;;;;;;21.42;8.18;;;;;;;12.06;68.26;102532.97;4959406;28;20118;-70
2021/11/10 11:15:02;;;;;;;16.08;8.45;;;;;;;12.09;67.83;102532.88;4957377;29;20113;-66
2021/11/10 11:17:33;;;;;;;21.05;8.93;;;;;;;12.03;68.43;102534.81;4956858;29;20031;-65